createdAt,value
2024-02-29T00:03:39.438Z,18.3
2024-02-29T00:09:18.172Z,19.1
2024-02-29T00:14:57.304Z,19.4
2024-02-29T00:20:35.835Z,19.1
2024-02-29T00:25:59.564Z,18.8
2024-02-29T00:31:38.521Z,18.5
2024-02-29T00:37:23.413Z,18.3
2024-02-29T00:43:12.403Z,18
2024-02-29T00:48:51.611Z,17.8
2024-02-29T00:54:30.644Z,18.2
2024-02-29T01:00:09.544Z,19.1
2024-02-29T01:05:33.179Z,19.3
2024-02-29T01:11:11.880Z,19.1
2024-02-29T01:16:50.820Z,18.8
2024-02-29T01:22:15.895Z,18.4
2024-02-29T01:27:55.994Z,18.2
2024-02-29T01:33:46.761Z,18
2024-02-29T01:39:25.347Z,17.8
2024-02-29T01:44:48.637Z,18.2
2024-02-29T01:50:27.756Z,19.1
2024-02-29T01:56:08.368Z,19.4
2024-02-29T02:01:49.798Z,19.1
2024-02-29T02:07:28.967Z,18.8
2024-02-29T02:13:08.040Z,18.4
2024-02-29T02:18:15.702Z,18.2
2024-02-29T02:23:38.905Z,17.9
2024-02-29T02:29:02.242Z,17.8
2024-02-29T02:34:24.976Z,18
2024-02-29T02:39:47.901Z,19
2024-02-29T02:44:55.553Z,19.3
2024-02-29T02:50:18.645Z,19.1
2024-02-29T03:01:05.317Z,18.4
2024-02-29T03:06:44.073Z,18.2
2024-02-29T03:12:23.339Z,17.9
2024-02-29T03:18:01.899Z,17.8
2024-02-29T03:23:40.847Z,18
2024-02-29T03:29:19.533Z,18.9
2024-02-29T03:34:58.209Z,19.3
2024-02-29T03:40:36.694Z,19
2024-02-29T03:46:15.473Z,18.6
2024-02-29T03:51:54.368Z,18.3
2024-02-29T03:57:32.818Z,18
2024-02-29T04:03:12.169Z,17.8
2024-02-29T04:08:50.843Z,17.8
2024-02-29T04:14:29.520Z,18.6
2024-02-29T04:20:08.497Z,19.2
2024-02-29T04:25:47.287Z,19
2024-02-29T04:31:25.800Z,18.6
2024-02-29T04:37:04.905Z,18.3
2024-02-29T04:42:43.448Z,18.1
2024-02-29T04:48:06.242Z,17.8
2024-02-29T04:53:45.018Z,17.6
2024-02-29T04:59:23.900Z,18.3
2024-02-29T05:05:03.026Z,19.1
2024-02-29T05:10:26.502Z,19.2
2024-02-29T05:16:07.374Z,18.9
2024-02-29T05:21:45.524Z,18.6
2024-02-29T05:27:24.380Z,18.3
2024-02-29T05:33:05.184Z,18
2024-02-29T05:38:44.173Z,17.8
2024-02-29T05:44:27.288Z,17.6
2024-02-29T05:49:50.958Z,18.4
2024-02-29T05:55:28.806Z,19.3
2024-02-29T06:01:07.807Z,19.2
2024-02-29T06:06:47.096Z,18.8
2024-02-29T06:12:27.448Z,18.4
2024-02-29T06:18:06.451Z,18.1
2024-02-29T06:23:45.477Z,17.9
2024-02-29T06:29:24.548Z,17.6
2024-02-29T06:35:04.011Z,18.1
2024-02-29T06:40:43.034Z,19
2024-02-29T06:46:06.659Z,19.1
2024-02-29T06:51:45.826Z,18.8
2024-02-29T06:57:25.724Z,18.5
2024-02-29T07:03:04.847Z,18.3
2024-02-29T07:08:44.004Z,17.9
2024-02-29T07:14:23.801Z,17.7
2024-02-29T07:20:02.814Z,17.8
2024-02-29T07:31:05.955Z,19.3
2024-02-29T07:36:30.026Z,19
2024-02-29T07:47:36.147Z,18.4
2024-02-29T07:53:15.628Z,18.1
2024-02-29T07:58:59.411Z,17.8
2024-02-29T08:04:39.823Z,17.7
2024-02-29T08:10:19.563Z,18.6
2024-02-29T08:16:01.980Z,19.3
2024-02-29T08:21:41.073Z,19.1
2024-02-29T08:32:46.119Z,18.4
2024-02-29T08:38:24.566Z,18.1
2024-02-29T08:44:03.044Z,17.9
2024-02-29T08:49:42.210Z,17.7
2024-02-29T08:55:21.512Z,18
2024-02-29T09:01:00.400Z,18.9
2024-02-29T09:06:41.356Z,19.1
2024-02-29T09:12:20.967Z,18.9
2024-02-29T09:18:15.011Z,18.6
2024-02-29T09:23:54.797Z,18.3
2024-02-29T09:29:24.208Z,18
2024-02-29T09:35:08.830Z,17.8
2024-02-29T09:41:02.989Z,17.6
2024-02-29T09:47:06.206Z,17.4
2024-02-29T09:52:55.280Z,17.3
2024-02-29T09:58:22.303Z,17.1
2024-02-29T10:04:04.253Z,17.4
2024-02-29T10:09:46.610Z,18.6
2024-02-29T10:15:25.916Z,18.8
2024-02-29T10:21:07.475Z,18.6
2024-02-29T10:26:45.566Z,18.3
2024-02-29T10:32:27.018Z,18
2024-02-29T10:38:08.096Z,17.8
2024-02-29T10:43:46.973Z,17.6
2024-02-29T10:49:11.215Z,17.5
2024-02-29T10:54:50.460Z,17.3
2024-02-29T11:00:30.282Z,17.3
2024-02-29T11:06:09.472Z,17.1
2024-02-29T11:11:48.831Z,17.8
2024-02-29T11:22:49.491Z,18.8
2024-02-29T11:28:34.614Z,18.5
2024-02-29T11:34:14.003Z,18.2
2024-02-29T11:40:06.081Z,17.9
2024-02-29T11:45:30.146Z,17.8
2024-02-29T11:51:12.020Z,17.6
2024-02-29T11:57:07.383Z,17.5
2024-02-29T12:02:47.462Z,17.4
2024-02-29T12:08:27.005Z,17.3
2024-02-29T12:14:10.218Z,17.1
2024-02-29T12:25:17.203Z,16.9
2024-02-29T12:30:57.455Z,16.8
2024-02-29T12:36:38.056Z,16.7
2024-02-29T12:42:18.678Z,16.6
2024-02-29T12:47:58.890Z,16.5
2024-02-29T12:53:39.185Z,16.4
2024-02-29T12:59:23.535Z,16.3
2024-02-29T13:05:07.045Z,16.3
2024-02-29T13:10:31.892Z,16.2
2024-02-29T13:16:02.942Z,16.1
2024-02-29T13:21:27.785Z,16.1
2024-02-29T13:27:11.718Z,16.1
2024-02-29T13:32:38.491Z,16
2024-02-29T13:38:18.460Z,15.9
2024-02-29T13:43:57.581Z,15.9
2024-02-29T13:49:39.082Z,15.9
2024-02-29T13:55:03.057Z,15.8
2024-02-29T14:00:27.255Z,15.8
2024-02-29T14:06:07.279Z,15.8
2024-02-29T14:11:47.020Z,15.7
2024-02-29T14:17:26.719Z,15.7
2024-02-29T14:23:08.189Z,15.6
2024-02-29T14:28:32.149Z,15.6
2024-02-29T14:34:12.995Z,15.6
2024-02-29T14:39:52.074Z,15.6
2024-02-29T14:45:31.863Z,15.6
2024-02-29T14:51:11.470Z,15.6
2024-02-29T14:56:52.531Z,15.6
2024-02-29T15:02:17.303Z,15.6
2024-02-29T15:07:58.194Z,15.5
2024-02-29T15:13:41.914Z,15.5
2024-02-29T15:19:22.463Z,15.5
2024-02-29T15:24:45.684Z,15.5
2024-02-29T15:30:09.352Z,15.5
2024-02-29T15:35:51.993Z,15.5
2024-02-29T15:41:30.916Z,15.5
2024-02-29T15:47:10.522Z,15.4
2024-02-29T15:52:53.341Z,15.4
2024-02-29T15:58:19.263Z,15.4
2024-02-29T16:03:59.203Z,15.4
2024-02-29T16:09:40.193Z,15.4
2024-02-29T16:15:07.466Z,15.4
2024-02-29T16:20:31.368Z,15.4
2024-02-29T16:26:11.381Z,15.4
2024-02-29T16:31:49.987Z,15.4
2024-02-29T16:37:31.582Z,15.4
2024-02-29T16:43:11.057Z,15.4
2024-02-29T16:48:53.541Z,15.4
2024-02-29T16:54:32.848Z,15.4
2024-02-29T17:00:12.581Z,15.4
2024-02-29T17:05:55.609Z,15.4
2024-02-29T17:11:37.891Z,15.4
2024-02-29T17:17:04.212Z,15.4
2024-02-29T17:22:43.375Z,15.4
2024-02-29T17:28:22.377Z,15.3
2024-02-29T17:34:01.787Z,15.4
2024-02-29T17:39:28.102Z,15.3
2024-02-29T17:45:06.683Z,15.3
2024-02-29T17:50:48.061Z,15.3
2024-02-29T17:56:27.596Z,15.3
2024-02-29T18:02:07.733Z,15.4
2024-02-29T18:07:50.993Z,15.3
2024-02-29T18:13:35.056Z,15.3
2024-02-29T18:19:14.434Z,16.1
2024-02-29T18:24:54.136Z,17.8
2024-02-29T18:30:33.564Z,18.8
2024-02-29T18:36:13.230Z,18.5
2024-02-29T18:41:52.768Z,18.3
2024-02-29T18:47:46.673Z,18
2024-02-29T18:53:27.849Z,17.8
2024-02-29T18:59:07.734Z,17.7
2024-02-29T19:04:49.420Z,17.6
2024-02-29T19:10:31.965Z,17.4
2024-02-29T19:15:40.419Z,17.3
2024-02-29T19:21:03.634Z,17.3
2024-02-29T19:26:46.872Z,17.5
2024-02-29T19:32:25.531Z,18.6
2024-02-29T19:38:08.286Z,19.3
2024-02-29T19:43:47.525Z,19
2024-02-29T19:49:12.034Z,18.6
2024-02-29T19:54:35.612Z,18.4
2024-02-29T20:00:15.391Z,18.2
2024-02-29T20:05:55.630Z,18
2024-02-29T20:11:19.695Z,17.8
2024-02-29T20:16:28.571Z,17.6
2024-02-29T20:21:53.823Z,17.5
2024-02-29T20:27:02.092Z,17.4
2024-02-29T20:32:29.032Z,17.3
2024-02-29T20:38:09.345Z,18.2
2024-02-29T20:43:33.956Z,19.1
2024-02-29T20:48:42.852Z,19.1
2024-02-29T20:54:06.734Z,18.8
2024-02-29T20:59:15.143Z,18.4
2024-02-29T21:04:23.492Z,18.2
2024-02-29T21:09:48.169Z,18
2024-02-29T21:15:12.092Z,17.8
2024-02-29T21:20:36.015Z,17.7
2024-02-29T21:25:59.725Z,17.6
2024-02-29T21:31:26.269Z,17.4
2024-02-29T21:36:49.702Z,17.3
2024-02-29T21:42:08.031Z,17.4
2024-02-29T21:47:47.300Z,18.3
2024-02-29T21:53:25.581Z,19
2024-02-29T21:59:04.909Z,18.9
2024-02-29T22:10:10.654Z,18.4
2024-02-29T22:15:51.386Z,18.1
2024-02-29T22:21:33.928Z,17.9
2024-02-29T22:26:57.645Z,18.4
2024-02-29T22:32:36.983Z,19.3
2024-02-29T22:38:16.330Z,19.5
2024-02-29T22:44:07.165Z,19.2
2024-02-29T22:49:46.745Z,18.8
2024-02-29T22:55:25.854Z,18.5
2024-02-29T23:01:10.652Z,18.3
2024-02-29T23:06:50.803Z,18
2024-02-29T23:12:15.163Z,17.9
2024-02-29T23:23:18.911Z,19.3
2024-02-29T23:29:03.081Z,19.3
2024-02-29T23:34:45.332Z,19.1
2024-02-29T23:45:48.223Z,18.4
2024-02-29T23:51:26.606Z,18.2
2024-02-29T23:57:06.378Z,18
